Evesham, New Jersey
Current Conditions -  °F | °C
As of 1:54 AM on Tuesday 21 Oct 2014 (Local Time) from KVAY Reporting Station
Clear Clear  
Wind Chill: 50°   Ceiling: Unl
Heat Index: 50°   Visibility: 10mi
Dew Point: 45°   Wind: 0mph
Humidity: 83%   Direction: NA
Pressure: 29.93"   Gusts: NA
Location:  39.8786°N, 74.8969°W
Report Text: KVAY 210554Z AUTO 00000KT 10SM CLR 10/07 A2993 RMK AO2 SLP134 T01000072 10111 20094 58017
Loading
Personal Weather Stations






























Interactive Weather Map
Tropical Storm Tracking
New forecast layout! Learn more

10-Day Weather Forecast

Advertisements
Track Severe Weather on mobile